createdAt,value
2019-04-25T00:01:36.637Z,14.77
2019-04-25T00:04:08.110Z,14.00
2019-04-25T00:06:43.864Z,13.70
2019-04-25T00:09:18.925Z,12.30
2019-04-25T00:11:59.756Z,15.13
2019-04-25T00:14:31.587Z,14.73
2019-04-25T00:17:03.319Z,11.07
2019-04-25T00:19:33.831Z,12.27
2019-04-25T00:22:13.936Z,11.97
2019-04-25T00:24:57.951Z,12.03
2019-04-25T00:27:28.699Z,13.73
2019-04-25T00:30:04.389Z,15.43
2019-04-25T00:32:37.718Z,10.93
2019-04-25T00:35:14.819Z,14.23
2019-04-25T00:37:47.868Z,13.03
2019-04-25T00:40:25.190Z,13.43
2019-04-25T00:43:01.470Z,12.63
2019-04-25T00:45:32.558Z,11.83
2019-04-25T00:48:04.340Z,14.40
2019-04-25T00:50:36.994Z,11.93
2019-04-25T00:53:07.309Z,11.77
2019-04-25T00:55:38.361Z,11.47
2019-04-25T00:58:32.015Z,12.00
2019-04-25T01:01:23.042Z,11.87
2019-04-25T01:03:54.500Z,14.27
2019-04-25T01:06:29.026Z,12.23
2019-04-25T01:09:01.644Z,13.73
2019-04-25T01:11:36.031Z,11.17
2019-04-25T01:14:06.646Z,13.03
2019-04-25T01:16:41.829Z,11.87
2019-04-25T01:19:16.408Z,12.53
2019-04-25T01:21:49.799Z,11.47
2019-04-25T01:24:24.091Z,12.70
2019-04-25T01:26:55.894Z,13.07
2019-04-25T01:29:30.745Z,10.03
2019-04-25T01:32:03.246Z,12.07
2019-04-25T01:34:54.903Z,10.53
2019-04-25T01:37:36.502Z,11.77
2019-04-25T01:40:38.967Z,10.03
2019-04-25T01:43:25.787Z,11.97
2019-04-25T01:45:59.693Z,10.63
2019-04-25T01:48:33.367Z,9.80
2019-04-25T01:51:05.693Z,11.13
2019-04-25T01:53:38.284Z,10.17
2019-04-25T01:56:13.403Z,11.17
2019-04-25T01:58:44.943Z,10.40
2019-04-25T02:01:16.702Z,11.63
2019-04-25T02:03:48.145Z,9.27
2019-04-25T02:06:19.290Z,11.07
2019-04-25T02:08:54.952Z,10.63
2019-04-25T02:12:04.581Z,11.83
2019-04-25T02:14:35.732Z,10.47
2019-04-25T02:17:07.224Z,10.73
2019-04-25T02:19:37.522Z,10.63
2019-04-25T02:22:09.366Z,10.63
2019-04-25T02:24:39.894Z,9.30
2019-04-25T02:27:10.585Z,9.63
2019-04-25T02:29:44.718Z,9.50
2019-04-25T02:32:18.397Z,10.80
2019-04-25T02:34:51.365Z,9.13
2019-04-25T02:37:25.556Z,9.77
2019-04-25T02:39:58.887Z,12.67
2019-04-25T02:42:29.512Z,10.63
2019-04-25T02:45:16.129Z,9.60
2019-04-25T02:48:07.771Z,8.87
2019-04-25T02:50:53.969Z,9.07
2019-04-25T02:53:38.908Z,10.50
2019-04-25T02:56:27.352Z,8.17
2019-04-25T02:58:45.375Z,8.70
2019-04-25T03:01:22.351Z,10.23
2019-04-25T03:03:49.845Z,9.07
2019-04-25T03:06:20.444Z,9.33
2019-04-25T03:08:50.750Z,10.93
2019-04-25T03:11:24.290Z,13.40
2019-04-25T03:13:54.609Z,11.10
2019-04-25T03:16:25.923Z,10.17
2019-04-25T03:19:16.297Z,9.80
2019-04-25T03:21:47.873Z,9.87
2019-04-25T03:24:18.210Z,9.77
2019-04-25T03:26:49.238Z,9.60
2019-04-25T03:29:22.047Z,10.33
2019-04-25T03:31:55.602Z,9.90
2019-04-25T03:34:25.462Z,9.27
2019-04-25T03:36:57.493Z,10.20
2019-04-25T03:39:34.201Z,10.00
2019-04-25T03:42:08.090Z,9.67
2019-04-25T03:44:41.366Z,7.83
2019-04-25T03:47:14.223Z,9.23
2019-04-25T03:49:45.165Z,9.37
2019-04-25T03:52:16.669Z,9.93
2019-04-25T03:54:48.054Z,10.10
2019-04-25T03:57:23.253Z,10.37
2019-04-25T03:59:56.722Z,8.80
2019-04-25T04:02:27.671Z,9.57
2019-04-25T04:04:59.821Z,9.43
2019-04-25T04:07:33.706Z,8.20
2019-04-25T04:10:05.757Z,9.17
2019-04-25T04:12:37.474Z,9.43
2019-04-25T04:15:08.361Z,10.37
2019-04-25T04:17:53.905Z,9.67
2019-04-25T04:20:40.358Z,8.83
2019-04-25T04:23:25.053Z,10.00
2019-04-25T04:25:56.662Z,8.10
2019-04-25T04:28:29.222Z,7.97
2019-04-25T04:31:03.725Z,10.23
2019-04-25T04:33:34.864Z,10.13
2019-04-25T04:36:05.156Z,7.97
2019-04-25T04:38:39.394Z,8.23
2019-04-25T04:41:11.569Z,8.33
2019-04-25T04:43:46.234Z,8.77
2019-04-25T04:46:19.747Z,7.83
2019-04-25T04:48:50.639Z,9.10
2019-04-25T04:51:23.830Z,7.43
2019-04-25T04:53:58.432Z,8.60
2019-04-25T04:56:29.881Z,8.10
2019-04-25T04:59:01.338Z,9.57
2019-04-25T05:01:38.006Z,8.77
2019-04-25T05:04:25.302Z,10.77
2019-04-25T05:07:21.614Z,8.27
2019-04-25T05:09:54.674Z,10.00
2019-04-25T05:12:28.354Z,10.00
2019-04-25T05:15:03.753Z,7.80
2019-04-25T05:17:40.877Z,9.30
2019-04-25T05:20:17.460Z,8.63
2019-04-25T05:22:54.543Z,8.63
2019-04-25T05:25:27.892Z,8.10
2019-04-25T05:28:05.293Z,9.50
2019-04-25T05:30:46.794Z,10.60
2019-04-25T05:33:20.923Z,6.97
2019-04-25T05:35:53.930Z,7.83
2019-04-25T05:38:25.208Z,8.57
2019-04-25T05:41:09.008Z,8.53
2019-04-25T05:43:44.140Z,8.37
2019-04-25T05:46:15.366Z,8.73
2019-04-25T05:48:45.893Z,10.53
2019-04-25T05:51:19.882Z,7.73
2019-04-25T05:53:50.642Z,9.00
2019-04-25T05:56:21.086Z,8.00
2019-04-25T05:58:54.726Z,9.37
2019-04-25T06:01:30.111Z,10.07
2019-04-25T06:04:05.174Z,9.10
2019-04-25T06:06:37.329Z,8.57
2019-04-25T06:09:25.108Z,7.70
2019-04-25T06:12:19.844Z,7.87
2019-04-25T06:14:54.656Z,7.13
2019-04-25T06:17:34.952Z,7.73
2019-04-25T06:20:10.273Z,10.90
2019-04-25T06:23:05.327Z,7.30
2019-04-25T06:25:39.638Z,7.80
2019-04-25T06:28:10.947Z,8.83
2019-04-25T06:30:44.210Z,7.47
2019-04-25T06:33:14.774Z,9.17
2019-04-25T06:35:47.053Z,8.23
2019-04-25T06:38:20.533Z,10.77
2019-04-25T06:40:53.958Z,8.37
2019-04-25T06:43:26.839Z,8.50
2019-04-25T06:46:33.583Z,7.70
2019-04-25T06:49:29.376Z,7.03
2019-04-25T06:52:00.526Z,6.93
2019-04-25T06:54:33.478Z,8.23
2019-04-25T06:57:04.711Z,8.30
2019-04-25T06:59:43.732Z,9.17
2019-04-25T07:02:16.338Z,7.63
2019-04-25T07:04:51.478Z,8.00
2019-04-25T07:07:25.279Z,8.63
2019-04-25T07:10:05.249Z,10.20
2019-04-25T07:12:37.906Z,7.63
2019-04-25T07:15:13.877Z,7.20
2019-04-25T07:17:45.808Z,7.63
2019-04-25T07:20:19.106Z,8.27
2019-04-25T07:22:49.788Z,7.80
2019-04-25T07:25:28.589Z,8.87
2019-04-25T07:28:24.270Z,9.03
2019-04-25T07:31:07.662Z,10.57
2019-04-25T07:33:53.245Z,8.93
2019-04-25T07:36:38.317Z,9.37
2019-04-25T07:39:13.450Z,7.87
2019-04-25T07:41:47.475Z,9.13
2019-04-25T07:44:36.695Z,9.07
2019-04-25T07:47:05.648Z,9.33
2019-04-25T07:49:36.521Z,10.23
2019-04-25T07:52:07.514Z,8.73
2019-04-25T07:54:39.712Z,9.10
2019-04-25T07:57:11.386Z,8.17
2019-04-25T07:59:44.586Z,9.10
2019-04-25T08:02:17.023Z,10.67
2019-04-25T08:04:48.289Z,10.73
2019-04-25T08:07:19.730Z,6.93
2019-04-25T08:09:50.874Z,8.40
2019-04-25T08:12:22.329Z,8.00
2019-04-25T08:15:04.057Z,8.30
2019-04-25T08:17:56.957Z,9.07
2019-04-25T08:20:34.319Z,7.30
2019-04-25T08:23:05.632Z,9.23
2019-04-25T08:25:40.624Z,8.10
2019-04-25T08:28:13.739Z,12.33
2019-04-25T08:30:45.222Z,11.83
2019-04-25T08:33:16.530Z,14.70
2019-04-25T08:36:03.396Z,15.77
2019-04-25T08:38:20.744Z,12.57
2019-04-25T08:40:54.330Z,13.83
2019-04-25T08:43:24.352Z,13.53
2019-04-25T08:45:55.110Z,11.53
2019-04-25T08:48:30.475Z,12.23
2019-04-25T08:51:14.665Z,13.57
2019-04-25T08:53:54.776Z,14.53
2019-04-25T08:56:32.015Z,11.07
2019-04-25T08:59:34.110Z,9.47
2019-04-25T09:02:19.409Z,15.73
2019-04-25T09:05:14.494Z,12.27
2019-04-25T09:07:45.387Z,12.03
2019-04-25T09:10:17.357Z,12.10
2019-04-25T09:12:50.381Z,18.60
2019-04-25T09:15:24.125Z,16.87
2019-04-25T09:17:54.900Z,11.23
2019-04-25T09:20:27.402Z,14.17
2019-04-25T09:22:58.239Z,12.10
2019-04-25T09:25:34.539Z,14.67
2019-04-25T09:28:06.371Z,15.93
2019-04-25T09:30:44.468Z,13.10
2019-04-25T09:33:14.998Z,13.63
2019-04-25T09:35:46.044Z,11.67
2019-04-25T09:38:24.736Z,13.27
2019-04-25T09:40:58.679Z,12.73
2019-04-25T09:43:29.694Z,13.23
2019-04-25T09:46:13.290Z,13.17
2019-04-25T09:49:08.044Z,14.50
2019-04-25T09:52:03.422Z,14.43
2019-04-25T09:54:40.063Z,19.80
2019-04-25T09:57:36.360Z,16.20
2019-04-25T10:00:13.276Z,13.90
2019-04-25T10:02:44.673Z,16.83
2019-04-25T10:05:23.881Z,16.07
2019-04-25T10:07:55.033Z,13.90
2019-04-25T10:10:26.230Z,16.70
2019-04-25T10:12:56.866Z,12.80
2019-04-25T10:15:50.402Z,13.90
2019-04-25T10:18:24.968Z,12.20
2019-04-25T10:20:55.362Z,16.33
2019-04-25T10:23:26.091Z,15.40
2019-04-25T10:25:56.522Z,14.60
2019-04-25T10:28:31.408Z,18.40
2019-04-25T10:31:03.442Z,16.53
2019-04-25T10:33:37.106Z,14.57
2019-04-25T10:36:11.194Z,15.47
2019-04-25T10:38:44.414Z,18.07
2019-04-25T10:41:18.818Z,12.77
2019-04-25T10:43:54.605Z,16.23
2019-04-25T10:46:24.534Z,16.03
2019-04-25T10:48:56.170Z,14.33
2019-04-25T10:51:32.230Z,12.87
2019-04-25T10:54:04.295Z,13.17
2019-04-25T10:56:35.442Z,14.63
2019-04-25T10:59:11.957Z,14.63
2019-04-25T11:01:45.753Z,14.60
2019-04-25T11:04:41.074Z,16.23
2019-04-25T11:07:14.462Z,13.47
2019-04-25T11:09:48.064Z,14.87
2019-04-25T11:12:23.511Z,16.07
2019-04-25T11:14:56.877Z,15.13
2019-04-25T11:17:27.602Z,13.17
2019-04-25T11:20:01.094Z,15.97
2019-04-25T11:22:34.254Z,11.57
2019-04-25T11:25:09.249Z,16.47
2019-04-25T11:27:46.620Z,12.67
2019-04-25T11:30:21.226Z,20.40
2019-04-25T11:32:56.790Z,19.77
2019-04-25T11:35:27.305Z,18.03
2019-04-25T11:38:00.482Z,19.40
2019-04-25T11:40:43.626Z,18.23
2019-04-25T11:43:14.178Z,18.27
2019-04-25T11:45:45.078Z,23.67
2019-04-25T11:48:17.276Z,22.67
2019-04-25T11:50:56.502Z,18.70
2019-04-25T11:53:27.655Z,20.07
2019-04-25T11:55:59.095Z,18.33
2019-04-25T11:58:30.231Z,19.53
2019-04-25T12:01:06.154Z,18.80
2019-04-25T12:03:40.898Z,19.87
2019-04-25T12:06:11.357Z,24.30
2019-04-25T12:08:42.421Z,19.50
2019-04-25T12:11:15.262Z,19.37
2019-04-25T12:13:48.098Z,16.77
2019-04-25T12:16:21.094Z,20.00
2019-04-25T12:18:55.732Z,14.93
2019-04-25T12:21:27.343Z,22.20
2019-04-25T12:23:58.074Z,18.80
2019-04-25T12:26:30.570Z,20.37
2019-04-25T12:29:04.447Z,18.73
2019-04-25T12:31:38.851Z,18.83
2019-04-25T12:34:11.061Z,17.17
2019-04-25T12:36:44.515Z,23.33
2019-04-25T12:39:15.916Z,17.00
2019-04-25T12:41:48.119Z,19.13
2019-04-25T12:44:50.833Z,27.43
2019-04-25T12:47:24.393Z,28.03
2019-04-25T12:49:56.147Z,33.83
2019-04-25T12:52:28.618Z,31.93
2019-04-25T12:54:59.706Z,36.10
2019-04-25T12:57:31.096Z,40.08
2019-04-25T13:00:01.941Z,37.57
2019-04-25T13:02:37.686Z,36.30
2019-04-25T13:05:09.798Z,37.40
2019-04-25T13:07:41.812Z,33.77
2019-04-25T13:10:15.545Z,35.00
2019-04-25T13:12:46.861Z,33.47
2019-04-25T13:15:18.314Z,36.27
2019-04-25T13:17:49.656Z,33.23
2019-04-25T13:20:21.533Z,37.70
2019-04-25T13:22:53.279Z,30.13
2019-04-25T13:25:24.730Z,29.93
2019-04-25T13:28:08.439Z,28.30
2019-04-25T13:31:03.766Z,29.73
2019-04-25T13:33:49.870Z,30.77
2019-04-25T13:36:22.074Z,26.33
2019-04-25T13:38:53.982Z,26.80
2019-04-25T13:41:43.078Z,24.50
2019-04-25T13:44:15.206Z,30.77
2019-04-25T13:46:48.151Z,31.17
2019-04-25T13:49:19.470Z,34.10
2019-04-25T13:51:53.117Z,35.50
2019-04-25T13:54:26.709Z,29.03
2019-04-25T13:56:58.089Z,30.07
2019-04-25T13:59:30.424Z,27.00
2019-04-25T14:02:05.991Z,30.00
2019-04-25T14:04:39.186Z,30.43
2019-04-25T14:07:13.570Z,30.53
2019-04-25T14:09:44.715Z,26.13
2019-04-25T14:12:19.419Z,27.67
2019-04-25T14:14:50.634Z,25.07
2019-04-25T14:17:33.832Z,28.23
2019-04-25T14:20:26.535Z,25.83
2019-04-25T14:22:57.378Z,29.60
2019-04-25T14:25:29.761Z,25.57
2019-04-25T14:28:00.171Z,28.27
2019-04-25T14:30:37.376Z,22.47
2019-04-25T14:33:07.815Z,27.40
2019-04-25T14:35:43.656Z,23.30
2019-04-25T14:38:14.126Z,23.73
2019-04-25T14:40:47.769Z,23.90
2019-04-25T14:43:18.098Z,24.53
2019-04-25T14:45:49.141Z,25.03
2019-04-25T14:48:19.621Z,25.57
2019-04-25T14:50:53.921Z,24.33
2019-04-25T14:53:26.814Z,24.57
2019-04-25T14:56:07.231Z,19.83
2019-04-25T14:58:40.216Z,22.33
2019-04-25T15:01:18.281Z,22.57
2019-04-25T15:03:49.569Z,19.37
2019-04-25T15:06:21.943Z,20.37
2019-04-25T15:08:53.699Z,20.77
2019-04-25T15:11:24.569Z,22.70
2019-04-25T15:13:58.210Z,20.10
2019-04-25T15:16:31.021Z,22.10
2019-04-25T15:19:02.272Z,21.07
2019-04-25T15:21:35.820Z,17.90
2019-04-25T15:24:14.118Z,19.00
2019-04-25T15:26:52.155Z,17.60
2019-04-25T15:29:23.775Z,19.17
2019-04-25T15:31:56.017Z,17.70
2019-04-25T15:34:39.913Z,22.67
2019-04-25T15:37:16.891Z,20.03
2019-04-25T15:39:56.761Z,19.73
2019-04-25T15:42:45.574Z,20.53
2019-04-25T15:45:29.588Z,16.50
2019-04-25T15:48:03.574Z,21.20
2019-04-25T15:50:36.854Z,19.40
2019-04-25T15:53:11.674Z,20.13
2019-04-25T15:55:48.798Z,19.77
2019-04-25T15:58:25.346Z,21.07
2019-04-25T16:00:59.170Z,18.90
2019-04-25T16:03:37.095Z,18.37
2019-04-25T16:06:08.678Z,17.30
2019-04-25T16:08:39.435Z,15.33
2019-04-25T16:11:10.208Z,23.40
2019-04-25T16:13:42.373Z,19.43
2019-04-25T16:16:17.619Z,17.27
2019-04-25T16:18:49.642Z,14.93
2019-04-25T16:21:20.402Z,19.10
2019-04-25T16:23:52.047Z,18.57
2019-04-25T16:26:23.323Z,18.27
2019-04-25T16:28:54.498Z,20.63
2019-04-25T16:31:28.970Z,17.87
2019-04-25T16:34:01.053Z,20.50
2019-04-25T16:36:35.986Z,15.97
2019-04-25T16:39:15.007Z,16.17
2019-04-25T16:41:50.035Z,16.90
2019-04-25T16:44:23.477Z,18.60
2019-04-25T16:47:02.521Z,15.93
2019-04-25T16:49:33.445Z,16.93
2019-04-25T16:52:11.024Z,15.97
2019-04-25T16:54:45.783Z,16.47
2019-04-25T16:57:17.310Z,13.47
2019-04-25T16:59:52.394Z,16.47
2019-04-25T17:02:32.770Z,12.63
2019-04-25T17:04:56.366Z,13.37
2019-04-25T17:07:43.356Z,16.00
2019-04-25T17:10:15.069Z,16.60
2019-04-25T17:12:48.717Z,15.87
2019-04-25T17:15:30.802Z,17.23
2019-04-25T17:18:12.197Z,20.33
2019-04-25T17:20:51.647Z,15.70
2019-04-25T17:23:23.258Z,19.50
2019-04-25T17:25:53.782Z,18.73
2019-04-25T17:28:24.646Z,16.97
2019-04-25T17:31:02.755Z,23.23
2019-04-25T17:33:44.243Z,14.83
2019-04-25T17:36:25.887Z,17.77
2019-04-25T17:39:13.490Z,16.40
2019-04-25T17:41:44.295Z,15.87
2019-04-25T17:44:18.584Z,14.80
2019-04-25T17:46:49.102Z,14.40
2019-04-25T17:49:21.629Z,16.97
2019-04-25T17:51:53.558Z,18.03
2019-04-25T17:54:32.776Z,17.23
2019-04-25T17:57:02.097Z,12.37
2019-04-25T17:59:36.801Z,15.30
2019-04-25T18:02:07.311Z,12.77
2019-04-25T18:04:42.959Z,14.30
2019-04-25T18:07:13.417Z,13.73
2019-04-25T18:09:47.400Z,14.10
2019-04-25T18:12:17.963Z,13.17
2019-04-25T18:14:51.978Z,14.73
2019-04-25T18:17:26.389Z,15.17
2019-04-25T18:20:05.307Z,15.10
2019-04-25T18:22:51.965Z,16.83
2019-04-25T18:25:45.370Z,14.30
2019-04-25T18:28:36.120Z,15.60
2019-04-25T18:31:09.072Z,13.93
2019-04-25T18:33:39.458Z,15.83
2019-04-25T18:36:32.607Z,13.43
2019-04-25T18:39:18.140Z,18.87
2019-04-25T18:42:08.382Z,16.73
2019-04-25T18:44:38.794Z,13.77
2019-04-25T18:47:12.718Z,16.13
2019-04-25T18:49:47.309Z,13.73
2019-04-25T18:52:47.088Z,12.13
2019-04-25T18:55:37.472Z,14.03
2019-04-25T18:58:15.106Z,12.90
2019-04-25T19:01:06.436Z,12.03
2019-04-25T19:04:01.109Z,11.87
2019-04-25T19:06:54.069Z,11.63
2019-04-25T19:09:13.990Z,11.17
2019-04-25T19:11:45.406Z,13.67
2019-04-25T19:14:22.857Z,15.53
2019-04-25T19:16:53.673Z,16.90
2019-04-25T19:19:25.770Z,19.43
2019-04-25T19:21:59.531Z,12.97
2019-04-25T19:24:30.399Z,18.30
2019-04-25T19:27:01.261Z,12.60
2019-04-25T19:29:32.126Z,16.23
2019-04-25T19:32:03.298Z,17.20
2019-04-25T19:34:36.850Z,20.17
2019-04-25T19:37:07.749Z,16.93
2019-04-25T19:39:41.520Z,16.43
2019-04-25T19:42:34.553Z,17.20
2019-04-25T19:45:09.288Z,18.37
2019-04-25T19:47:47.159Z,17.67
2019-04-25T19:50:25.110Z,14.50
2019-04-25T19:53:12.317Z,15.70
2019-04-25T19:55:43.715Z,12.60
2019-04-25T19:58:20.958Z,15.67
2019-04-25T20:00:56.037Z,13.63
2019-04-25T20:03:51.830Z,14.10
2019-04-25T20:06:47.458Z,12.43
2019-04-25T20:09:40.634Z,15.03
2019-04-25T20:12:11.850Z,12.37
2019-04-25T20:14:49.712Z,15.77
2019-04-25T20:17:22.643Z,17.63
2019-04-25T20:19:54.113Z,13.10
2019-04-25T20:22:27.823Z,15.57
2019-04-25T20:25:02.395Z,16.53
2019-04-25T20:27:35.310Z,13.10
2019-04-25T20:30:07.665Z,14.20
2019-04-25T20:32:45.810Z,15.23
2019-04-25T20:35:20.773Z,13.13
2019-04-25T20:37:52.228Z,18.10
2019-04-25T20:40:24.071Z,13.30
2019-04-25T20:42:59.635Z,16.50
2019-04-25T20:45:33.933Z,14.27
2019-04-25T20:48:07.201Z,15.67
2019-04-25T20:50:41.549Z,16.17
2019-04-25T20:53:14.035Z,12.10
2019-04-25T20:55:47.606Z,15.87
2019-04-25T20:58:19.048Z,18.87
2019-04-25T21:00:53.727Z,13.53
2019-04-25T21:03:28.686Z,13.50
2019-04-25T21:06:09.484Z,13.50
2019-04-25T21:08:41.298Z,13.60
2019-04-25T21:11:21.020Z,16.33
2019-04-25T21:14:12.458Z,13.20
2019-04-25T21:17:10.220Z,14.17
2019-04-25T21:19:45.204Z,15.37
2019-04-25T21:22:25.491Z,15.10
2019-04-25T21:24:55.857Z,13.40
2019-04-25T21:27:28.658Z,16.03
2019-04-25T21:29:59.781Z,12.27
2019-04-25T21:32:50.536Z,13.83
2019-04-25T21:35:28.599Z,13.60
2019-04-25T21:38:02.070Z,10.07
2019-04-25T21:40:57.585Z,11.33
2019-04-25T21:43:39.721Z,15.03
2019-04-25T21:46:14.838Z,12.57
2019-04-25T21:48:46.473Z,15.20
2019-04-25T21:51:35.293Z,12.17
2019-04-25T21:54:08.330Z,10.93
2019-04-25T21:56:42.997Z,13.03
2019-04-25T21:59:25.100Z,11.93
2019-04-25T22:02:07.377Z,14.07
2019-04-25T22:04:41.148Z,12.30
2019-04-25T22:07:15.170Z,11.20
2019-04-25T22:09:59.448Z,12.70
2019-04-25T22:12:29.581Z,12.13
2019-04-25T22:15:11.476Z,13.00
2019-04-25T22:17:48.538Z,11.50
2019-04-25T22:20:19.080Z,11.80
2019-04-25T22:22:52.174Z,12.57
2019-04-25T22:25:25.648Z,12.40
2019-04-25T22:27:57.679Z,12.83
2019-04-25T22:30:32.141Z,13.17
2019-04-25T22:33:13.545Z,14.07
2019-04-25T22:35:53.006Z,10.43
2019-04-25T22:38:28.630Z,12.70
2019-04-25T22:40:59.198Z,12.13
2019-04-25T22:43:32.925Z,14.40
2019-04-25T22:46:06.921Z,13.40
2019-04-25T22:48:49.313Z,13.23
2019-04-25T22:51:21.548Z,12.30
2019-04-25T22:53:53.442Z,14.73
2019-04-25T22:56:26.777Z,12.53
2019-04-25T22:58:58.403Z,12.27
2019-04-25T23:02:02.439Z,12.17
2019-04-25T23:05:04.823Z,13.87
2019-04-25T23:07:28.427Z,14.40
2019-04-25T23:10:04.425Z,15.20
2019-04-25T23:12:38.778Z,13.40
2019-04-25T23:15:11.037Z,15.97
2019-04-25T23:17:42.213Z,13.47
2019-04-25T23:20:13.923Z,16.57
2019-04-25T23:22:45.418Z,11.33
2019-04-25T23:25:23.581Z,13.07
2019-04-25T23:28:20.394Z,13.03
2019-04-25T23:31:19.134Z,11.50
2019-04-25T23:33:52.053Z,13.90
2019-04-25T23:36:22.970Z,14.47
2019-04-25T23:38:53.659Z,14.20
2019-04-25T23:41:24.491Z,12.60
2019-04-25T23:43:58.467Z,13.93
2019-04-25T23:46:31.570Z,12.20
2019-04-25T23:49:02.308Z,13.73
2019-04-25T23:51:34.331Z,15.77
2019-04-25T23:54:07.594Z,17.33
2019-04-25T23:56:38.793Z,13.10
2019-04-25T23:59:11.792Z,10.57
